CheckWX is a tool to help pilots better visualize weather data.  It is not intended as a substitute for an official pre-flight weather briefing.

06:12:15 UTC

HDAM METAR
Djibouti-Ambouli Airport
Djibouti City, Djibouti
Current

1 hour ago

HDAM 220500Z 03007KT 9999 SCT023 BKN027 32/25 Q1010
Observed
Apr-22 @ 05:00 UTC
Wind
  • 030° at 7 KTS
Visibility
10,000+ meters
Flight Rules
MVFR
Cloud Levels
  • Scattered at 2,300' AGL
  • Broken at 2,700' AGL
Temperature
32°C / 90°F
Dewpoint
25°C / 77°F
Heat Index
40°C / 104°F
Humidity
67%
Altimeter
29.82" Hg
Pressure
1009.92 hPa
Previous

11 hours ago

HDAM 211900Z 08009KT 9999 FEW023 29/25 Q1008
Observed
Apr-21 @ 19:00 UTC
Wind
  • 080° at 9 KTS
Visibility
10,000+ meters
Flight Rules
VFR
Cloud Levels
  • Few at 2,300' AGL
Temperature
29°C / 84°F
Dewpoint
25°C / 77°F
Heat Index
34°C / 94°F
Humidity
79%
Altimeter
29.76" Hg
Pressure
1007.92 hPa
Previous

17 hours ago

HDAM 211300Z 08013KT 9999 FEW023 33/24 Q1005
Observed
Apr-21 @ 13:00 UTC
Wind
  • 080° at 13 KTS
Visibility
10,000+ meters
Flight Rules
VFR
Cloud Levels
  • Few at 2,300' AGL
Temperature
33°C / 91°F
Dewpoint
24°C / 75°F
Heat Index
39°C / 102°F
Humidity
59%
Altimeter
29.68" Hg
Pressure
1004.92 hPa